Etusivu
METAR-TAF:

METAR-TAF

Lentoasemat :

Néma, Mauritania

Leveyspiiri: 16-37-19N, Pituuspiiri: 007-18-59W, korkeus merenpinnasta: 231 m

Tämänhetkinen sää

Tämä raportti tehtiin 4 tuntia ja 28 minuuttia sitten, kello 09.00 UTC
Tuuli 4 kn pohjoisesta, vaihdellen luoteen ja pohjoisen/koillisen välillä
Lämpötila 27°C
Kosteus 28%
Ilmanpaine 1017 hPa
Näkyvyys 10 km tai enemmän
ei pilviä alle 1500 m:ssä eikä cumulonimbus-pilviä

METAR: GQNI 080900Z 36004KT 310V030 CAVOK 27/07 Q1017

Aika: 13:28 (13:28 UTC)


TAF: puuttuu

Säähavainnot ja -ennusteet yli 4000 lentoasemalta (METAR- ja TAF-raportit).

Käytössä olevat sääasemat on merkitty karttaan keltaisilla ja punaisilla pisteillä.

Aseta hiiri pisteen päälle nähdäksesi sääaseman nimen.

Klikkaa sitten nähdäksesi säähavainnot ja -ennusteet.

Kartan vaihtaminen: klikkaa mustalla rastilla varustettuja vihreitä pisteitä, niin voit zoomata sisään; viivalla varustettua vihreää pistettä, niin voit zoomata ulos tai vihreitä nuolia, niin pääset viereisille kartoille.


METAR-TAF: